sensor_id;sensor_type;location;lat;lon;timestamp;P1;durP1;ratioP1;P2;durP2;ratioP2
20179;SDS011;10249;48.900;9.090;2022-09-19T00:01:34;2.00;;;1.90;;
20179;SDS011;10249;48.900;9.090;2022-09-19T00:04:02;2.07;;;1.97;;
20179;SDS011;10249;48.900;9.090;2022-09-19T00:06:30;2.30;;;2.20;;
20179;SDS011;10249;48.900;9.090;2022-09-19T00:08:58;2.03;;;1.93;;
20179;SDS011;10249;48.900;9.090;2022-09-19T00:11:26;2.03;;;1.90;;
20179;SDS011;10249;48.900;9.090;2022-09-19T00:13:53;2.00;;;1.90;;
20179;SDS011;10249;48.900;9.090;2022-09-19T00:16:22;1.63;;;1.63;;
20179;SDS011;10249;48.900;9.090;2022-09-19T00:18:50;1.60;;;1.60;;
20179;SDS011;10249;48.900;9.090;2022-09-19T00:21:18;1.80;;;1.70;;
20179;SDS011;10249;48.900;9.090;2022-09-19T00:23:45;1.90;;;1.87;;
20179;SDS011;10249;48.900;9.090;2022-09-19T00:26:31;1.83;;;1.70;;
20179;SDS011;10249;48.900;9.090;2022-09-19T00:28:59;2.00;;;1.90;;
20179;SDS011;10249;48.900;9.090;2022-09-19T00:31:26;2.00;;;1.90;;
20179;SDS011;10249;48.900;9.090;2022-09-19T00:33:53;2.00;;;1.90;;
20179;SDS011;10249;48.900;9.090;2022-09-19T00:36:20;1.90;;;1.80;;
20179;SDS011;10249;48.900;9.090;2022-09-19T00:38:48;5.87;;;2.47;;
20179;SDS011;10249;48.900;9.090;2022-09-19T00:41:15;2.50;;;1.80;;
20179;SDS011;10249;48.900;9.090;2022-09-19T00:43:45;2.10;;;2.00;;
20179;SDS011;10249;48.900;9.090;2022-09-19T00:46:12;1.80;;;1.77;;
20179;SDS011;10249;48.900;9.090;2022-09-19T00:48:39;1.87;;;1.83;;
20179;SDS011;10249;48.900;9.090;2022-09-19T00:51:08;1.80;;;1.70;;
20179;SDS011;10249;48.900;9.090;2022-09-19T00:53:36;1.63;;;1.63;;
20179;SDS011;10249;48.900;9.090;2022-09-19T00:56:03;2.00;;;1.90;;
20179;SDS011;10249;48.900;9.090;2022-09-19T00:58:32;1.80;;;1.70;;
20179;SDS011;10249;48.900;9.090;2022-09-19T01:01:01;1.90;;;1.80;;
20179;SDS011;10249;48.900;9.090;2022-09-19T01:03:28;1.60;;;1.60;;
20179;SDS011;10249;48.900;9.090;2022-09-19T01:05:58;1.70;;;1.70;;
20179;SDS011;10249;48.900;9.090;2022-09-19T01:11:12;1.80;;;1.70;;
20179;SDS011;10249;48.900;9.090;2022-09-19T01:13:44;1.60;;;1.60;;
20179;SDS011;10249;48.900;9.090;2022-09-19T01:16:21;1.50;;;1.50;;
20179;SDS011;10249;48.900;9.090;2022-09-19T01:18:59;1.90;;;1.80;;
20179;SDS011;10249;48.900;9.090;2022-09-19T01:21:31;2.47;;;2.30;;
20179;SDS011;10249;48.900;9.090;2022-09-19T01:24:19;1.60;;;1.60;;
20179;SDS011;10249;48.900;9.090;2022-09-19T01:26:54;1.70;;;1.60;;
20179;SDS011;10249;48.900;9.090;2022-09-19T01:29:27;1.73;;;1.63;;
20179;SDS011;10249;48.900;9.090;2022-09-19T01:31:56;1.60;;;1.60;;
20179;SDS011;10249;48.900;9.090;2022-09-19T01:34:25;1.80;;;1.70;;
20179;SDS011;10249;48.900;9.090;2022-09-19T01:36:55;1.63;;;1.63;;
20179;SDS011;10249;48.900;9.090;2022-09-19T01:39:28;1.73;;;1.67;;
20179;SDS011;10249;48.900;9.090;2022-09-19T01:41:56;1.60;;;1.60;;
20179;SDS011;10249;48.900;9.090;2022-09-19T01:44:25;2.30;;;2.20;;
20179;SDS011;10249;48.900;9.090;2022-09-19T01:46:55;1.70;;;1.70;;
20179;SDS011;10249;48.900;9.090;2022-09-19T01:49:29;1.90;;;1.80;;
20179;SDS011;10249;48.900;9.090;2022-09-19T01:51:58;1.93;;;1.83;;
20179;SDS011;10249;48.900;9.090;2022-09-19T01:54:30;1.70;;;1.70;;
20179;SDS011;10249;48.900;9.090;2022-09-19T01:57:03;1.80;;;1.70;;
20179;SDS011;10249;48.900;9.090;2022-09-19T01:59:46;1.90;;;1.80;;
20179;SDS011;10249;48.900;9.090;2022-09-19T02:02:20;1.97;;;1.87;;
20179;SDS011;10249;48.900;9.090;2022-09-19T02:04:49;1.93;;;1.83;;
20179;SDS011;10249;48.900;9.090;2022-09-19T02:07:19;2.07;;;1.90;;
20179;SDS011;10249;48.900;9.090;2022-09-19T02:09:49;1.77;;;1.77;;
20179;SDS011;10249;48.900;9.090;2022-09-19T02:12:19;1.60;;;1.60;;
20179;SDS011;10249;48.900;9.090;2022-09-19T02:14:48;2.00;;;1.90;;
20179;SDS011;10249;48.900;9.090;2022-09-19T02:17:18;1.70;;;1.70;;
20179;SDS011;10249;48.900;9.090;2022-09-19T02:19:51;2.07;;;1.97;;
20179;SDS011;10249;48.900;9.090;2022-09-19T02:22:20;2.53;;;2.33;;
20179;SDS011;10249;48.900;9.090;2022-09-19T02:24:49;2.20;;;2.10;;
20179;SDS011;10249;48.900;9.090;2022-09-19T02:27:25;2.20;;;2.10;;
20179;SDS011;10249;48.900;9.090;2022-09-19T02:29:55;2.10;;;2.00;;
20179;SDS011;10249;48.900;9.090;2022-09-19T02:32:23;2.50;;;2.40;;
20179;SDS011;10249;48.900;9.090;2022-09-19T02:34:53;2.30;;;2.20;;
20179;SDS011;10249;48.900;9.090;2022-09-19T02:37:21;3.37;;;2.70;;
20179;SDS011;10249;48.900;9.090;2022-09-19T02:39:55;2.90;;;2.80;;
20179;SDS011;10249;48.900;9.090;2022-09-19T02:42:27;3.00;;;2.70;;
20179;SDS011;10249;48.900;9.090;2022-09-19T02:45:02;2.50;;;2.40;;
20179;SDS011;10249;48.900;9.090;2022-09-19T02:47:33;2.57;;;2.47;;
20179;SDS011;10249;48.900;9.090;2022-09-19T02:50:07;3.10;;;3.00;;
20179;SDS011;10249;48.900;9.090;2022-09-19T02:52:38;2.70;;;2.60;;
20179;SDS011;10249;48.900;9.090;2022-09-19T02:55:06;3.23;;;2.93;;
20179;SDS011;10249;48.900;9.090;2022-09-19T02:57:38;3.03;;;2.77;;
20179;SDS011;10249;48.900;9.090;2022-09-19T03:00:06;3.13;;;3.03;;
20179;SDS011;10249;48.900;9.090;2022-09-19T03:02:34;2.80;;;2.70;;
20179;SDS011;10249;48.900;9.090;2022-09-19T03:05:02;3.43;;;3.23;;
20179;SDS011;10249;48.900;9.090;2022-09-19T03:07:33;3.13;;;3.03;;
20179;SDS011;10249;48.900;9.090;2022-09-19T03:10:04;3.50;;;3.30;;
20179;SDS011;10249;48.900;9.090;2022-09-19T03:12:33;3.83;;;3.37;;
20179;SDS011;10249;48.900;9.090;2022-09-19T03:15:03;3.20;;;3.10;;
20179;SDS011;10249;48.900;9.090;2022-09-19T03:17:31;3.70;;;3.40;;
20179;SDS011;10249;48.900;9.090;2022-09-19T03:20:01;3.80;;;3.60;;
20179;SDS011;10249;48.900;9.090;2022-09-19T03:22:28;3.80;;;3.50;;
20179;SDS011;10249;48.900;9.090;2022-09-19T03:24:57;4.60;;;3.90;;
20179;SDS011;10249;48.900;9.090;2022-09-19T03:27:27;3.60;;;3.40;;
20179;SDS011;10249;48.900;9.090;2022-09-19T03:29:55;3.40;;;3.30;;
20179;SDS011;10249;48.900;9.090;2022-09-19T03:32:22;3.33;;;3.23;;
20179;SDS011;10249;48.900;9.090;2022-09-19T03:34:51;3.33;;;3.23;;
20179;SDS011;10249;48.900;9.090;2022-09-19T03:37:20;3.97;;;3.23;;
20179;SDS011;10249;48.900;9.090;2022-09-19T03:39:48;7.10;;;3.40;;
20179;SDS011;10249;48.900;9.090;2022-09-19T03:42:16;3.07;;;2.97;;
20179;SDS011;10249;48.900;9.090;2022-09-19T03:44:45;3.20;;;3.10;;
20179;SDS011;10249;48.900;9.090;2022-09-19T03:47:12;3.20;;;3.10;;
20179;SDS011;10249;48.900;9.090;2022-09-19T03:49:41;3.50;;;3.40;;
20179;SDS011;10249;48.900;9.090;2022-09-19T03:52:08;3.43;;;3.23;;
20179;SDS011;10249;48.900;9.090;2022-09-19T03:54:35;3.50;;;3.23;;
20179;SDS011;10249;48.900;9.090;2022-09-19T03:57:02;3.83;;;3.53;;
20179;SDS011;10249;48.900;9.090;2022-09-19T03:59:31;3.23;;;3.10;;
20179;SDS011;10249;48.900;9.090;2022-09-19T04:01:58;3.53;;;3.43;;
20179;SDS011;10249;48.900;9.090;2022-09-19T04:04:25;3.70;;;3.60;;
20179;SDS011;10249;48.900;9.090;2022-09-19T04:06:52;3.60;;;3.50;;
20179;SDS011;10249;48.900;9.090;2022-09-19T04:09:19;3.87;;;3.67;;
20179;SDS011;10249;48.900;9.090;2022-09-19T04:11:46;4.60;;;4.20;;
20179;SDS011;10249;48.900;9.090;2022-09-19T04:14:13;3.47;;;3.23;;
20179;SDS011;10249;48.900;9.090;2022-09-19T04:16:43;3.90;;;3.70;;
20179;SDS011;10249;48.900;9.090;2022-09-19T04:19:10;3.50;;;3.40;;
20179;SDS011;10249;48.900;9.090;2022-09-19T04:21:37;4.57;;;4.27;;
20179;SDS011;10249;48.900;9.090;2022-09-19T04:24:07;4.30;;;4.10;;
20179;SDS011;10249;48.900;9.090;2022-09-19T04:26:34;4.40;;;4.20;;
20179;SDS011;10249;48.900;9.090;2022-09-19T04:29:01;4.63;;;4.23;;
20179;SDS011;10249;48.900;9.090;2022-09-19T04:31:29;4.00;;;3.90;;
20179;SDS011;10249;48.900;9.090;2022-09-19T04:34:04;5.33;;;4.50;;
20179;SDS011;10249;48.900;9.090;2022-09-19T04:36:31;5.47;;;4.97;;
20179;SDS011;10249;48.900;9.090;2022-09-19T04:38:58;5.53;;;5.13;;
20179;SDS011;10249;48.900;9.090;2022-09-19T04:41:28;4.80;;;4.60;;
20179;SDS011;10249;48.900;9.090;2022-09-19T04:43:55;5.40;;;5.10;;
20179;SDS011;10249;48.900;9.090;2022-09-19T04:46:22;4.50;;;4.40;;
20179;SDS011;10249;48.900;9.090;2022-09-19T04:48:50;5.57;;;5.10;;
20179;SDS011;10249;48.900;9.090;2022-09-19T04:51:20;5.17;;;4.77;;
20179;SDS011;10249;48.900;9.090;2022-09-19T04:53:49;5.23;;;5.00;;
20179;SDS011;10249;48.900;9.090;2022-09-19T04:56:16;5.60;;;5.30;;
20179;SDS011;10249;48.900;9.090;2022-09-19T04:58:45;5.53;;;4.73;;
20179;SDS011;10249;48.900;9.090;2022-09-19T05:01:12;8.63;;;5.03;;
20179;SDS011;10249;48.900;9.090;2022-09-19T05:03:40;5.23;;;4.93;;
20179;SDS011;10249;48.900;9.090;2022-09-19T05:06:09;5.70;;;5.20;;
20179;SDS011;10249;48.900;9.090;2022-09-19T05:08:38;5.33;;;5.00;;
20179;SDS011;10249;48.900;9.090;2022-09-19T05:11:06;5.40;;;5.20;;
20179;SDS011;10249;48.900;9.090;2022-09-19T05:13:33;5.57;;;5.27;;
20179;SDS011;10249;48.900;9.090;2022-09-19T05:16:03;6.20;;;5.73;;
20179;SDS011;10249;48.900;9.090;2022-09-19T05:18:30;5.53;;;5.23;;
20179;SDS011;10249;48.900;9.090;2022-09-19T05:21:02;5.37;;;5.07;;
20179;SDS011;10249;48.900;9.090;2022-09-19T05:23:29;6.50;;;5.33;;
20179;SDS011;10249;48.900;9.090;2022-09-19T05:26:01;5.77;;;5.37;;
20179;SDS011;10249;48.900;9.090;2022-09-19T05:28:28;5.23;;;5.03;;
20179;SDS011;10249;48.900;9.090;2022-09-19T05:30:55;5.70;;;5.30;;
20179;SDS011;10249;48.900;9.090;2022-09-19T05:33:22;6.07;;;5.50;;
20179;SDS011;10249;48.900;9.090;2022-09-19T05:35:51;5.30;;;5.10;;
20179;SDS011;10249;48.900;9.090;2022-09-19T05:38:18;4.90;;;4.70;;
20179;SDS011;10249;48.900;9.090;2022-09-19T05:40:45;5.77;;;5.40;;
20179;SDS011;10249;48.900;9.090;2022-09-19T05:43:14;5.50;;;5.17;;
20179;SDS011;10249;48.900;9.090;2022-09-19T05:45:41;5.20;;;4.80;;
20179;SDS011;10249;48.900;9.090;2022-09-19T05:48:08;5.47;;;4.90;;
20179;SDS011;10249;48.900;9.090;2022-09-19T05:50:35;5.30;;;4.90;;
20179;SDS011;10249;48.900;9.090;2022-09-19T05:53:03;5.17;;;4.77;;
20179;SDS011;10249;48.900;9.090;2022-09-19T05:55:47;5.50;;;5.10;;
20179;SDS011;10249;48.900;9.090;2022-09-19T05:58:16;4.07;;;3.73;;
20179;SDS011;10249;48.900;9.090;2022-09-19T06:00:43;5.20;;;4.93;;
20179;SDS011;10249;48.900;9.090;2022-09-19T06:03:11;5.33;;;4.80;;
20179;SDS011;10249;48.900;9.090;2022-09-19T06:05:41;5.70;;;5.40;;
20179;SDS011;10249;48.900;9.090;2022-09-19T06:08:09;6.53;;;6.03;;
20179;SDS011;10249;48.900;9.090;2022-09-19T06:10:38;5.87;;;5.57;;
20179;SDS011;10249;48.900;9.090;2022-09-19T06:13:05;6.53;;;6.03;;
20179;SDS011;10249;48.900;9.090;2022-09-19T06:15:34;6.50;;;5.13;;
20179;SDS011;10249;48.900;9.090;2022-09-19T06:18:01;6.60;;;5.93;;
20179;SDS011;10249;48.900;9.090;2022-09-19T06:20:28;6.13;;;5.70;;
20179;SDS011;10249;48.900;9.090;2022-09-19T06:22:55;6.97;;;6.40;;
20179;SDS011;10249;48.900;9.090;2022-09-19T06:25:22;6.60;;;6.00;;
20179;SDS011;10249;48.900;9.090;2022-09-19T06:27:53;5.60;;;5.30;;
20179;SDS011;10249;48.900;9.090;2022-09-19T06:30:20;6.60;;;6.00;;
20179;SDS011;10249;48.900;9.090;2022-09-19T06:32:49;6.60;;;5.93;;
20179;SDS011;10249;48.900;9.090;2022-09-19T06:35:17;6.63;;;6.30;;
20179;SDS011;10249;48.900;9.090;2022-09-19T06:37:44;7.33;;;6.63;;
20179;SDS011;10249;48.900;9.090;2022-09-19T06:40:11;6.53;;;6.03;;
20179;SDS011;10249;48.900;9.090;2022-09-19T06:42:38;5.67;;;5.33;;
20179;SDS011;10249;48.900;9.090;2022-09-19T06:45:05;6.40;;;6.00;;
20179;SDS011;10249;48.900;9.090;2022-09-19T06:47:33;6.30;;;6.00;;
20179;SDS011;10249;48.900;9.090;2022-09-19T06:50:02;6.83;;;6.20;;
20179;SDS011;10249;48.900;9.090;2022-09-19T06:52:29;7.50;;;6.85;;
20179;SDS011;10249;48.900;9.090;2022-09-19T06:54:56;6.90;;;6.40;;
20179;SDS011;10249;48.900;9.090;2022-09-19T06:57:24;10.63;;;7.10;;
20179;SDS011;10249;48.900;9.090;2022-09-19T06:59:51;7.80;;;7.10;;
20179;SDS011;10249;48.900;9.090;2022-09-19T07:02:18;9.33;;;7.00;;
20179;SDS011;10249;48.900;9.090;2022-09-19T07:04:46;8.20;;;7.50;;
20179;SDS011;10249;48.900;9.090;2022-09-19T07:07:16;7.20;;;6.63;;
20179;SDS011;10249;48.900;9.090;2022-09-19T07:09:43;7.83;;;7.10;;
20179;SDS011;10249;48.900;9.090;2022-09-19T07:12:10;8.27;;;7.57;;
20179;SDS011;10249;48.900;9.090;2022-09-19T07:14:37;7.90;;;7.40;;
20179;SDS011;10249;48.900;9.090;2022-09-19T07:17:05;8.20;;;7.53;;
20179;SDS011;10249;48.900;9.090;2022-09-19T07:19:33;8.20;;;7.40;;
20179;SDS011;10249;48.900;9.090;2022-09-19T07:22:00;7.13;;;6.73;;
20179;SDS011;10249;48.900;9.090;2022-09-19T07:24:28;6.80;;;6.50;;
20179;SDS011;10249;48.900;9.090;2022-09-19T07:26:55;9.30;;;7.00;;
20179;SDS011;10249;48.900;9.090;2022-09-19T07:29:22;9.07;;;7.50;;
20179;SDS011;10249;48.900;9.090;2022-09-19T07:31:50;7.27;;;6.90;;
20179;SDS011;10249;48.900;9.090;2022-09-19T07:34:17;7.40;;;7.10;;
20179;SDS011;10249;48.900;9.090;2022-09-19T07:36:44;8.20;;;7.43;;
20179;SDS011;10249;48.900;9.090;2022-09-19T07:39:11;7.30;;;7.00;;
20179;SDS011;10249;48.900;9.090;2022-09-19T07:41:39;8.17;;;7.63;;
20179;SDS011;10249;48.900;9.090;2022-09-19T07:44:06;7.57;;;7.13;;
20179;SDS011;10249;48.900;9.090;2022-09-19T07:46:33;8.40;;;7.70;;
20179;SDS011;10249;48.900;9.090;2022-09-19T07:49:00;8.40;;;7.90;;
20179;SDS011;10249;48.900;9.090;2022-09-19T07:51:27;8.20;;;7.60;;
20179;SDS011;10249;48.900;9.090;2022-09-19T07:53:55;8.27;;;7.67;;
20179;SDS011;10249;48.900;9.090;2022-09-19T07:56:22;9.17;;;8.20;;
20179;SDS011;10249;48.900;9.090;2022-09-19T07:58:51;7.47;;;7.17;;
20179;SDS011;10249;48.900;9.090;2022-09-19T08:01:18;8.47;;;7.80;;
20179;SDS011;10249;48.900;9.090;2022-09-19T08:03:45;8.87;;;8.27;;
20179;SDS011;10249;48.900;9.090;2022-09-19T08:06:13;9.33;;;8.43;;
20179;SDS011;10249;48.900;9.090;2022-09-19T08:08:40;8.10;;;7.63;;
20179;SDS011;10249;48.900;9.090;2022-09-19T08:11:07;10.30;;;8.53;;
20179;SDS011;10249;48.900;9.090;2022-09-19T08:13:35;9.50;;;8.80;;
20179;SDS011;10249;48.900;9.090;2022-09-19T08:16:03;8.37;;;8.00;;
20179;SDS011;10249;48.900;9.090;2022-09-19T08:18:31;9.87;;;9.10;;
20179;SDS011;10249;48.900;9.090;2022-09-19T08:20:58;9.10;;;8.37;;
20179;SDS011;10249;48.900;9.090;2022-09-19T08:23:25;9.40;;;8.60;;
20179;SDS011;10249;48.900;9.090;2022-09-19T08:25:54;8.90;;;8.33;;
20179;SDS011;10249;48.900;9.090;2022-09-19T08:28:21;9.67;;;9.03;;
20179;SDS011;10249;48.900;9.090;2022-09-19T08:30:49;10.17;;;9.23;;
20179;SDS011;10249;48.900;9.090;2022-09-19T08:33:17;10.67;;;9.93;;
20179;SDS011;10249;48.900;9.090;2022-09-19T08:35:44;10.73;;;9.93;;
20179;SDS011;10249;48.900;9.090;2022-09-19T08:38:12;10.80;;;10.10;;
20179;SDS011;10249;48.900;9.090;2022-09-19T08:40:47;11.13;;;10.33;;
20179;SDS011;10249;48.900;9.090;2022-09-19T08:43:17;9.60;;;9.20;;
20179;SDS011;10249;48.900;9.090;2022-09-19T08:45:55;10.83;;;10.17;;
20179;SDS011;10249;48.900;9.090;2022-09-19T08:48:27;10.90;;;10.10;;
20179;SDS011;10249;48.900;9.090;2022-09-19T08:50:56;11.40;;;10.40;;
20179;SDS011;10249;48.900;9.090;2022-09-19T08:53:26;11.57;;;10.57;;
20179;SDS011;10249;48.900;9.090;2022-09-19T08:55:55;10.83;;;9.83;;
20179;SDS011;10249;48.900;9.090;2022-09-19T08:58:25;10.83;;;10.23;;
20179;SDS011;10249;48.900;9.090;2022-09-19T09:00:52;10.87;;;9.93;;
20179;SDS011;10249;48.900;9.090;2022-09-19T09:03:23;9.60;;;9.20;;
20179;SDS011;10249;48.900;9.090;2022-09-19T09:05:54;10.70;;;10.10;;
20179;SDS011;10249;48.900;9.090;2022-09-19T09:08:28;10.63;;;10.00;;
20179;SDS011;10249;48.900;9.090;2022-09-19T09:10:59;10.13;;;9.63;;
20179;SDS011;10249;48.900;9.090;2022-09-19T09:13:35;11.00;;;10.20;;
20179;SDS011;10249;48.900;9.090;2022-09-19T09:16:06;11.43;;;10.53;;
20179;SDS011;10249;48.900;9.090;2022-09-19T09:18:47;13.73;;;11.50;;
20179;SDS011;10249;48.900;9.090;2022-09-19T09:21:19;11.87;;;11.10;;
20179;SDS011;10249;48.900;9.090;2022-09-19T09:23:49;11.03;;;10.53;;
20179;SDS011;10249;48.900;9.090;2022-09-19T09:26:18;11.53;;;10.60;;
20179;SDS011;10249;48.900;9.090;2022-09-19T09:28:48;12.20;;;11.40;;
20179;SDS011;10249;48.900;9.090;2022-09-19T09:31:18;12.63;;;11.90;;
20179;SDS011;10249;48.900;9.090;2022-09-19T09:33:51;12.57;;;11.57;;
20179;SDS011;10249;48.900;9.090;2022-09-19T09:36:21;12.93;;;11.83;;
20179;SDS011;10249;48.900;9.090;2022-09-19T09:38:52;12.00;;;11.37;;
20179;SDS011;10249;48.900;9.090;2022-09-19T09:41:21;12.33;;;11.43;;
20179;SDS011;10249;48.900;9.090;2022-09-19T09:44:07;12.30;;;11.30;;
20179;SDS011;10249;48.900;9.090;2022-09-19T09:46:44;12.37;;;11.77;;
20179;SDS011;10249;48.900;9.090;2022-09-19T09:49:14;12.20;;;11.60;;
20179;SDS011;10249;48.900;9.090;2022-09-19T09:51:47;12.10;;;11.27;;
20179;SDS011;10249;48.900;9.090;2022-09-19T09:54:19;12.40;;;11.50;;
20179;SDS011;10249;48.900;9.090;2022-09-19T09:57:05;12.43;;;11.63;;
20179;SDS011;10249;48.900;9.090;2022-09-19T09:59:36;12.00;;;11.40;;
20179;SDS011;10249;48.900;9.090;2022-09-19T10:02:38;13.03;;;12.13;;
20179;SDS011;10249;48.900;9.090;2022-09-19T10:05:33;12.03;;;11.40;;
20179;SDS011;10249;48.900;9.090;2022-09-19T10:08:06;12.77;;;12.07;;
20179;SDS011;10249;48.900;9.090;2022-09-19T10:10:39;11.30;;;10.90;;
20179;SDS011;10249;48.900;9.090;2022-09-19T10:13:09;12.07;;;11.57;;
20179;SDS011;10249;48.900;9.090;2022-09-19T10:15:40;12.40;;;11.50;;
20179;SDS011;10249;48.900;9.090;2022-09-19T10:18:08;13.43;;;12.43;;
20179;SDS011;10249;48.900;9.090;2022-09-19T10:20:37;11.80;;;11.30;;
20179;SDS011;10249;48.900;9.090;2022-09-19T10:23:10;12.30;;;11.70;;
20179;SDS011;10249;48.900;9.090;2022-09-19T10:25:38;12.50;;;11.90;;
20179;SDS011;10249;48.900;9.090;2022-09-19T10:28:14;13.07;;;12.27;;
20179;SDS011;10249;48.900;9.090;2022-09-19T10:30:49;13.17;;;12.13;;
20179;SDS011;10249;48.900;9.090;2022-09-19T10:33:23;12.73;;;12.23;;
20179;SDS011;10249;48.900;9.090;2022-09-19T10:35:52;12.33;;;11.77;;
20179;SDS011;10249;48.900;9.090;2022-09-19T10:38:25;12.63;;;11.93;;
20179;SDS011;10249;48.900;9.090;2022-09-19T10:40:53;12.40;;;11.70;;
20179;SDS011;10249;48.900;9.090;2022-09-19T10:43:22;11.87;;;11.00;;
20179;SDS011;10249;48.900;9.090;2022-09-19T10:45:52;13.13;;;12.37;;
20179;SDS011;10249;48.900;9.090;2022-09-19T10:48:20;12.23;;;11.53;;
20179;SDS011;10249;48.900;9.090;2022-09-19T10:50:48;13.23;;;12.43;;
20179;SDS011;10249;48.900;9.090;2022-09-19T10:53:17;12.90;;;12.20;;
20179;SDS011;10249;48.900;9.090;2022-09-19T10:55:46;13.40;;;12.50;;
20179;SDS011;10249;48.900;9.090;2022-09-19T10:58:14;12.67;;;12.13;;
20179;SDS011;10249;48.900;9.090;2022-09-19T11:00:49;12.20;;;11.70;;
20179;SDS011;10249;48.900;9.090;2022-09-19T11:03:17;13.40;;;12.60;;
20179;SDS011;10249;48.900;9.090;2022-09-19T11:06:01;13.20;;;12.50;;
20179;SDS011;10249;48.900;9.090;2022-09-19T11:08:29;13.20;;;12.40;;
20179;SDS011;10249;48.900;9.090;2022-09-19T11:10:58;13.20;;;12.40;;
20179;SDS011;10249;48.900;9.090;2022-09-19T11:13:29;13.33;;;12.20;;
20179;SDS011;10249;48.900;9.090;2022-09-19T11:16:07;12.60;;;12.00;;
20179;SDS011;10249;48.900;9.090;2022-09-19T11:21:31;13.80;;;12.17;;
20179;SDS011;10249;48.900;9.090;2022-09-19T11:24:04;12.80;;;12.00;;
20179;SDS011;10249;48.900;9.090;2022-09-19T11:26:36;12.30;;;11.53;;
20179;SDS011;10249;48.900;9.090;2022-09-19T11:29:10;11.93;;;11.33;;
20179;SDS011;10249;48.900;9.090;2022-09-19T11:31:40;12.37;;;11.77;;
20179;SDS011;10249;48.900;9.090;2022-09-19T11:34:10;12.37;;;11.57;;
20179;SDS011;10249;48.900;9.090;2022-09-19T11:36:40;11.80;;;11.30;;
20179;SDS011;10249;48.900;9.090;2022-09-19T11:39:11;12.27;;;11.57;;
20179;SDS011;10249;48.900;9.090;2022-09-19T11:41:46;12.67;;;12.00;;
20179;SDS011;10249;48.900;9.090;2022-09-19T11:44:21;12.57;;;11.97;;
20179;SDS011;10249;48.900;9.090;2022-09-19T11:46:52;12.20;;;11.50;;
20179;SDS011;10249;48.900;9.090;2022-09-19T11:52:18;12.37;;;11.57;;
20179;SDS011;10249;48.900;9.090;2022-09-19T11:54:57;12.80;;;12.23;;
20179;SDS011;10249;48.900;9.090;2022-09-19T11:57:37;13.40;;;12.50;;
20179;SDS011;10249;48.900;9.090;2022-09-19T12:00:10;13.57;;;12.87;;
20179;SDS011;10249;48.900;9.090;2022-09-19T12:05:26;13.30;;;12.50;;
20179;SDS011;10249;48.900;9.090;2022-09-19T12:08:02;14.07;;;13.07;;
20179;SDS011;10249;48.900;9.090;2022-09-19T12:10:34;13.60;;;13.00;;
20179;SDS011;10249;48.900;9.090;2022-09-19T12:13:05;12.97;;;12.30;;
20179;SDS011;10249;48.900;9.090;2022-09-19T12:15:34;13.70;;;12.90;;
20179;SDS011;10249;48.900;9.090;2022-09-19T12:18:03;13.00;;;12.20;;
20179;SDS011;10249;48.900;9.090;2022-09-19T12:20:33;13.80;;;13.20;;
20179;SDS011;10249;48.900;9.090;2022-09-19T12:23:03;14.20;;;13.50;;
20179;SDS011;10249;48.900;9.090;2022-09-19T12:25:48;14.20;;;13.20;;
20179;SDS011;10249;48.900;9.090;2022-09-19T12:28:18;14.17;;;13.47;;
20179;SDS011;10249;48.900;9.090;2022-09-19T12:30:49;14.40;;;13.50;;
20179;SDS011;10249;48.900;9.090;2022-09-19T12:33:26;13.63;;;12.83;;
20179;SDS011;10249;48.900;9.090;2022-09-19T12:35:58;13.50;;;12.80;;
20179;SDS011;10249;48.900;9.090;2022-09-19T12:38:32;13.30;;;12.70;;
20179;SDS011;10249;48.900;9.090;2022-09-19T12:41:04;13.50;;;12.90;;
20179;SDS011;10249;48.900;9.090;2022-09-19T12:43:39;14.10;;;13.30;;
20179;SDS011;10249;48.900;9.090;2022-09-19T12:46:11;13.50;;;12.90;;
20179;SDS011;10249;48.900;9.090;2022-09-19T12:48:44;13.70;;;13.10;;
20179;SDS011;10249;48.900;9.090;2022-09-19T12:51:16;13.63;;;13.03;;
20179;SDS011;10249;48.900;9.090;2022-09-19T12:53:47;13.77;;;13.00;;
20179;SDS011;10249;48.900;9.090;2022-09-19T12:56:16;13.93;;;13.23;;
20179;SDS011;10249;48.900;9.090;2022-09-19T12:58:49;13.83;;;13.13;;
20179;SDS011;10249;48.900;9.090;2022-09-19T13:01:19;14.30;;;13.60;;
20179;SDS011;10249;48.900;9.090;2022-09-19T13:03:49;14.73;;;13.83;;
20179;SDS011;10249;48.900;9.090;2022-09-19T13:06:19;14.67;;;13.80;;
20179;SDS011;10249;48.900;9.090;2022-09-19T13:08:47;14.03;;;13.43;;
20179;SDS011;10249;48.900;9.090;2022-09-19T13:11:17;14.07;;;13.37;;
20179;SDS011;10249;48.900;9.090;2022-09-19T13:13:48;13.90;;;13.30;;
20179;SDS011;10249;48.900;9.090;2022-09-19T13:16:18;14.70;;;13.90;;
20179;SDS011;10249;48.900;9.090;2022-09-19T13:18:46;15.37;;;14.47;;
20179;SDS011;10249;48.900;9.090;2022-09-19T13:21:43;15.40;;;14.40;;
20179;SDS011;10249;48.900;9.090;2022-09-19T13:24:34;13.90;;;13.13;;
20179;SDS011;10249;48.900;9.090;2022-09-19T13:27:03;13.93;;;13.30;;
20179;SDS011;10249;48.900;9.090;2022-09-19T13:29:44;24.17;;;14.23;;
20179;SDS011;10249;48.900;9.090;2022-09-19T13:32:26;14.13;;;13.33;;
20179;SDS011;10249;48.900;9.090;2022-09-19T13:35:00;12.90;;;12.30;;
20179;SDS011;10249;48.900;9.090;2022-09-19T13:40:19;15.33;;;14.23;;
20179;SDS011;10249;48.900;9.090;2022-09-19T13:42:49;14.90;;;13.90;;
20179;SDS011;10249;48.900;9.090;2022-09-19T13:45:20;14.00;;;13.30;;
20179;SDS011;10249;48.900;9.090;2022-09-19T13:47:49;13.30;;;12.60;;
20179;SDS011;10249;48.900;9.090;2022-09-19T13:50:20;12.93;;;12.30;;
20179;SDS011;10249;48.900;9.090;2022-09-19T13:52:50;12.30;;;11.70;;
20179;SDS011;10249;48.900;9.090;2022-09-19T13:55:28;8.13;;;7.63;;
20179;SDS011;10249;48.900;9.090;2022-09-19T14:00:42;5.90;;;5.70;;
20179;SDS011;10249;48.900;9.090;2022-09-19T14:03:18;6.30;;;6.10;;
20179;SDS011;10249;48.900;9.090;2022-09-19T14:05:48;6.33;;;6.13;;
20179;SDS011;10249;48.900;9.090;2022-09-19T14:08:23;6.10;;;5.90;;
20179;SDS011;10249;48.900;9.090;2022-09-19T14:10:56;7.73;;;7.30;;
20179;SDS011;10249;48.900;9.090;2022-09-19T14:13:33;7.20;;;7.00;;
20179;SDS011;10249;48.900;9.090;2022-09-19T14:16:07;6.37;;;6.17;;
20179;SDS011;10249;48.900;9.090;2022-09-19T14:18:47;5.50;;;5.30;;
20179;SDS011;10249;48.900;9.090;2022-09-19T14:24:02;7.13;;;6.93;;
20179;SDS011;10249;48.900;9.090;2022-09-19T14:26:35;6.60;;;6.40;;
20179;SDS011;10249;48.900;9.090;2022-09-19T14:29:09;9.20;;;8.90;;
20179;SDS011;10249;48.900;9.090;2022-09-19T14:31:47;9.90;;;9.60;;
20179;SDS011;10249;48.900;9.090;2022-09-19T14:39:51;12.77;;;12.27;;
20179;SDS011;10249;48.900;9.090;2022-09-19T14:42:26;12.50;;;12.00;;
20179;SDS011;10249;48.900;9.090;2022-09-19T14:45:07;11.83;;;11.33;;
20179;SDS011;10249;48.900;9.090;2022-09-19T14:47:38;12.77;;;12.27;;
20179;SDS011;10249;48.900;9.090;2022-09-19T14:50:10;13.47;;;12.87;;
20179;SDS011;10249;48.900;9.090;2022-09-19T14:52:40;13.10;;;12.60;;
20179;SDS011;10249;48.900;9.090;2022-09-19T14:55:10;12.50;;;12.00;;
20179;SDS011;10249;48.900;9.090;2022-09-19T14:57:44;12.77;;;12.23;;
20179;SDS011;10249;48.900;9.090;2022-09-19T15:00:12;12.20;;;11.50;;
20179;SDS011;10249;48.900;9.090;2022-09-19T15:02:40;11.50;;;11.00;;
20179;SDS011;10249;48.900;9.090;2022-09-19T15:05:14;12.77;;;12.27;;
20179;SDS011;10249;48.900;9.090;2022-09-19T15:07:42;12.33;;;11.83;;
20179;SDS011;10249;48.900;9.090;2022-09-19T15:10:20;12.70;;;12.10;;
20179;SDS011;10249;48.900;9.090;2022-09-19T15:12:47;13.60;;;12.70;;
20179;SDS011;10249;48.900;9.090;2022-09-19T15:15:15;12.90;;;12.30;;
20179;SDS011;10249;48.900;9.090;2022-09-19T15:17:44;13.00;;;12.50;;
20179;SDS011;10249;48.900;9.090;2022-09-19T15:20:12;13.57;;;12.97;;
20179;SDS011;10249;48.900;9.090;2022-09-19T15:22:45;14.80;;;14.03;;